Time;durP1;ratioP1;P1;durP2;ratioP2;P2;SDS_P1;SDS_P2;PMS_P1;PMS_P2;Temp;Humidity;BMP_temperature;BMP_pressure;BME280_temperature;BME280_humidity;BME280_pressure;Samples;Min_cycle;Max_cycle;Signal;HPM_P1;HPM_P2
2023/09/18 00:00:08;;;;;;;3.60;3.30;;;;;;;21.94;79.42;99976.97;5071823;28;20192;-65
2023/09/18 00:02:35;;;;;;;7.23;3.70;;;;;;;21.86;79.53;99974.75;5071462;28;20184;-65
2023/09/18 00:05:01;;;;;;;4.80;4.40;;;;;;;21.73;79.51;99969.75;5070902;28;20253;-65
2023/09/18 00:07:28;;;;;;;4.37;4.07;;;;;;;21.75;79.27;99967.59;5073695;28;20187;-65
2023/09/18 00:09:55;;;;;;;3.80;3.50;;;;;;;21.81;79.50;99963.84;5089662;28;20191;-65
2023/09/18 00:12:21;;;;;;;5.03;4.33;;;;;;;21.74;79.89;99965.16;5090069;28;20516;-65
2023/09/18 00:14:50;;;;;;;4.13;3.77;;;;;;;21.58;79.93;99961.47;5088875;28;20586;-65
2023/09/18 00:17:18;;;;;;;6.07;3.97;;;;;;;21.36;81.04;99963.38;5089076;28;20227;-67
2023/09/18 00:19:45;;;;;;;4.23;3.90;;;;;;;21.37;81.06;99965.03;5089525;28;20195;-66
2023/09/18 00:22:12;;;;;;;5.17;4.60;;;;;;;21.53;81.42;99961.41;5089097;28;20195;-66
2023/09/18 00:24:39;;;;;;;4.90;4.60;;;;;;;21.39;81.05;99957.47;5089486;28;20677;-66
2023/09/18 00:27:06;;;;;;;4.63;4.07;;;;;;;21.25;81.97;99964.34;5090227;28;20278;-65
2023/09/18 00:29:32;;;;;;;5.97;4.10;;;;;;;21.39;81.79;99957.47;5091289;28;20187;-65
2023/09/18 00:32:00;;;;;;;4.53;3.90;;;;;;;21.44;81.70;99962.91;5089344;28;20260;-65
2023/09/18 00:34:27;;;;;;;4.50;4.10;;;;;;;21.54;81.10;99973.84;5071016;28;20250;-64
2023/09/18 00:36:53;;;;;;;5.13;3.77;;;;;;;21.60;80.62;99970.13;5070915;28;20245;-65
2023/09/18 00:39:20;;;;;;;4.43;4.10;;;;;;;21.67;80.34;99973.44;5070922;28;20227;-64
2023/09/18 00:41:49;;;;;;;5.13;4.33;;;;;;;21.59;79.95;99968.50;5071370;28;20763;-66
2023/09/18 00:44:15;;;;;;;4.17;3.60;;;;;;;21.66;80.04;99974.53;5071278;28;20196;-65
2023/09/18 00:46:42;;;;;;;5.10;3.77;;;;;;;21.69;80.16;99973.19;5070961;28;20192;-64
2023/09/18 00:49:12;;;;;;;6.20;3.77;;;;;;;21.71;79.59;99977.28;5070792;28;20656;-65
2023/09/18 00:51:39;;;;;;;4.37;4.10;;;;;;;21.78;79.25;99971.66;5070900;28;20199;-64
2023/09/18 00:54:06;;;;;;;4.13;3.70;;;;;;;21.80;79.01;99978.44;5071091;28;20200;-64
2023/09/18 00:56:33;;;;;;;4.23;3.93;;;;;;;21.77;78.34;99976.28;5070836;28;20274;-64
2023/09/18 00:59:01;;;;;;;4.70;4.27;;;;;;;21.73;78.66;99968.94;5070977;28;20219;-64
2023/09/18 01:01:29;;;;;;;7.93;4.93;;;;;;;21.53;79.47;99968.69;5070675;28;20200;-64
2023/09/18 01:03:57;;;;;;;4.37;4.07;;;;;;;21.60;79.24;99958.50;5071113;28;20188;-65
2023/09/18 01:06:30;;;;;;;4.83;4.20;;;;;;;21.71;79.48;99961.06;5070802;28;20273;-64
2023/09/18 01:08:57;;;;;;;4.33;4.03;;;;;;;21.65;78.54;99961.25;5087650;28;20183;-64
2023/09/18 01:11:31;;;;;;;4.40;4.10;;;;;;;21.55;79.71;99961.16;5091232;28;20196;-64
2023/09/18 01:14:05;;;;;;;4.03;3.70;;;;;;;21.67;79.74;99964.50;5090870;28;20245;-65
2023/09/18 01:16:35;;;;;;;4.20;3.30;;;;;;;21.77;78.93;99965.47;5090879;28;20211;-65
2023/09/18 01:19:03;;;;;;;3.90;3.50;;;;;;;21.86;78.79;99969.34;5091206;28;20215;-65
2023/09/18 01:21:31;;;;;;;3.80;3.50;;;;;;;21.95;78.50;99967.78;5090799;28;20187;-65
2023/09/18 01:23:59;;;;;;;4.10;3.70;;;;;;;21.99;78.09;99968.88;5090793;28;20663;-65
2023/09/18 01:26:26;;;;;;;4.33;3.90;;;;;;;22.08;78.05;99978.16;5093945;28;20192;-65
2023/09/18 01:28:52;;;;;;;5.40;4.17;;;;;;;22.20;77.27;99972.56;5094694;28;20221;-64
2023/09/18 01:31:19;;;;;;;4.53;3.73;;;;;;;22.26;77.28;99969.63;5094733;28;20191;-65
2023/09/18 01:33:48;;;;;;;4.87;3.50;;;;;;;22.36;77.20;99974.28;5094446;28;20187;-65
2023/09/18 01:36:17;;;;;;;3.77;3.43;;;;;;;22.40;76.39;99964.56;5094541;28;20274;-65
2023/09/18 01:38:45;;;;;;;3.97;3.67;;;;;;;22.42;76.08;99976.78;5094357;28;20277;-65
2023/09/18 01:41:13;;;;;;;4.30;3.70;;;;;;;22.41;75.49;99961.63;5094282;28;20663;-65
2023/09/18 01:43:40;;;;;;;3.73;3.53;;;;;;;22.42;75.30;99968.66;5093998;28;20729;-65
2023/09/18 01:46:06;;;;;;;3.30;3.00;;;;;;;22.47;75.41;99963.31;5094255;28;20258;-65
2023/09/18 01:48:33;;;;;;;3.80;3.50;;;;;;;22.50;75.14;99970.91;5094221;28;20226;-65
2023/09/18 01:51:00;;;;;;;3.63;3.33;;;;;;;22.41;75.23;99972.44;5094324;28;20195;-65
2023/09/18 01:53:26;;;;;;;5.07;3.50;;;;;;;22.33;75.19;99969.44;5094119;28;20248;-65
2023/09/18 01:55:53;;;;;;;5.00;3.20;;;;;;;22.35;75.46;99973.50;5094236;28;20191;-66
2023/09/18 01:58:21;;;;;;;5.13;3.20;;;;;;;22.35;75.10;99973.50;5093982;28;20219;-66
2023/09/18 02:00:48;;;;;;;4.03;3.50;;;;;;;22.40;75.50;99975.41;5094142;28;20302;-66
2023/09/18 02:03:18;;;;;;;3.60;3.23;;;;;;;22.46;75.18;99969.78;5093966;28;20195;-66
2023/09/18 02:05:44;;;;;;;5.30;3.50;;;;;;;22.51;74.82;99966.31;5092239;28;20203;-66
2023/09/18 02:08:11;;;;;;;6.07;3.83;;;;;;;22.48;74.81;99967.66;5080986;28;20257;-66
2023/09/18 02:10:37;;;;;;;3.50;3.20;;;;;;;22.52;74.37;99976.06;5071437;28;20253;-66
2023/09/18 02:13:04;;;;;;;3.33;3.10;;;;;;;22.49;74.43;99974.69;5071439;28;20188;-66
2023/09/18 02:15:35;;;;;;;3.50;3.10;;;;;;;22.52;74.75;99968.75;5071017;28;20287;-66
2023/09/18 02:18:02;;;;;;;3.87;2.70;;;;;;;22.52;74.01;99968.75;5071588;28;20216;-66
2023/09/18 02:20:29;;;;;;;3.27;3.07;;;;;;;22.44;74.40;99955.69;5071586;28;20537;-66
2023/09/18 02:22:55;;;;;;;3.77;3.00;;;;;;;22.57;74.29;99971.50;5071003;28;20193;-67
2023/09/18 02:25:22;;;;;;;5.40;3.00;;;;;;;22.51;73.65;99967.13;5071407;28;20684;-66
2023/09/18 02:27:49;;;;;;;4.77;3.00;;;;;;;22.52;74.25;99978.78;5072525;28;20193;-65
2023/09/18 02:30:16;;;;;;;3.60;3.20;;;;;;;22.56;73.89;99975.28;5073248;28;20208;-65
2023/09/18 02:32:44;;;;;;;6.67;3.17;;;;;;;22.61;74.39;99971.78;5072885;28;20667;-65
2023/09/18 02:35:11;;;;;;;3.53;3.03;;;;;;;22.70;73.84;99978.34;5073179;28;20253;-65
2023/09/18 02:37:37;;;;;;;3.47;3.17;;;;;;;22.61;73.02;99977.19;5072553;28;20222;-64
2023/09/18 02:40:06;;;;;;;5.37;3.40;;;;;;;22.60;73.64;99979.09;5072838;28;20267;-65
2023/09/18 02:42:33;;;;;;;3.40;3.20;;;;;;;22.63;73.30;99981.28;5072752;28;20240;-65
2023/09/18 02:45:00;;;;;;;5.63;3.13;;;;;;;22.67;73.33;99981.56;5072616;28;20193;-65
2023/09/18 02:47:26;;;;;;;3.57;3.27;;;;;;;22.74;73.36;99982.16;5072633;28;20220;-65
2023/09/18 02:49:54;;;;;;;3.50;3.30;;;;;;;22.74;73.12;99982.97;5072871;28;20193;-65
2023/09/18 02:52:22;;;;;;;6.00;3.30;;;;;;;22.77;72.52;99982.44;5072905;28;20192;-66
2023/09/18 02:54:49;;;;;;;3.83;3.47;;;;;;;22.78;72.09;100000.31;5072828;28;20249;-65
2023/09/18 02:57:15;;;;;;;4.13;3.17;;;;;;;22.75;72.14;99987.28;5072829;28;20189;-65
2023/09/18 02:59:42;;;;;;;5.03;3.20;;;;;;;22.75;72.31;99987.28;5072593;28;20231;-65
2023/09/18 03:02:09;;;;;;;5.53;2.77;;;;;;;22.67;72.80;99982.38;5072615;28;20221;-65
2023/09/18 03:04:36;;;;;;;4.87;3.13;;;;;;;22.57;72.25;99986.91;5072520;28;20230;-65
2023/09/18 03:07:05;;;;;;;4.80;3.50;;;;;;;22.64;72.85;99988.34;5073280;28;20200;-65
2023/09/18 03:09:31;;;;;;;8.67;4.27;;;;;;;22.70;72.63;99984.56;5092597;28;20203;-65
2023/09/18 03:11:58;;;;;;;5.53;3.20;;;;;;;22.72;72.37;99993.25;5092855;28;20257;-65
2023/09/18 03:14:25;;;;;;;5.30;3.67;;;;;;;22.69;71.47;99996.47;5092602;28;20340;-66
2023/09/18 03:16:51;;;;;;;5.43;3.73;;;;;;;22.54;72.26;99998.28;5092725;28;20567;-65
2023/09/18 03:19:18;;;;;;;8.73;8.00;;;;;;;22.49;72.66;99990.13;5092454;28;20284;-66
2023/09/18 03:21:45;;;;;;;4.13;3.73;;;;;;;22.40;73.01;99989.78;5088979;28;20198;-67
2023/09/18 03:24:13;;;;;;;5.90;3.63;;;;;;;22.36;73.00;99991.38;5092159;28;20671;-65
2023/09/18 03:26:39;;;;;;;3.87;3.50;;;;;;;22.28;73.09;99996.44;5092482;28;20355;-66
2023/09/18 03:29:06;;;;;;;4.47;3.40;;;;;;;22.30;73.39;99994.31;5078969;28;20191;-64
2023/09/18 03:31:33;;;;;;;3.33;3.03;;;;;;;22.24;73.40;99989.91;5072078;28;20189;-64
2023/09/18 03:33:59;;;;;;;3.93;3.40;;;;;;;22.24;73.31;99990.75;5071866;28;20250;-65
2023/09/18 03:36:26;;;;;;;4.33;3.37;;;;;;;22.27;73.70;99990.22;5076491;28;20192;-65
2023/09/18 03:38:52;;;;;;;6.60;3.20;;;;;;;22.31;73.38;99991.34;5085242;28;20291;-65
2023/09/18 03:41:21;;;;;;;6.40;3.23;;;;;;;22.29;73.67;99989.97;5074301;28;20273;-65
2023/09/18 03:43:49;;;;;;;3.50;3.20;;;;;;;22.35;73.14;99989.75;5072941;28;20218;-67
2023/09/18 03:46:15;;;;;;;4.70;2.93;;;;;;;22.34;74.50;99993.50;5071890;28;20188;-66
2023/09/18 03:48:42;;;;;;;5.07;2.87;;;;;;;22.40;73.34;99987.06;5070639;28;20761;-66
2023/09/18 03:51:09;;;;;;;4.40;4.03;;;;;;;22.33;73.82;99989.16;5071795;28;20250;-66
2023/09/18 03:53:36;;;;;;;4.00;3.60;;;;;;;22.24;73.39;99988.03;5071777;28;20199;-64
2023/09/18 03:56:03;;;;;;;5.80;3.30;;;;;;;22.24;74.03;99993.44;5071359;28;20590;-65
2023/09/18 03:58:31;;;;;;;8.63;3.67;;;;;;;22.20;73.83;99992.31;5071357;28;20569;-65
2023/09/18 04:00:58;;;;;;;6.67;3.43;;;;;;;22.26;75.35;99987.78;5071643;28;20196;-65
2023/09/18 04:03:24;;;;;;;7.27;3.47;;;;;;;22.31;74.44;99994.03;5081803;28;20195;-65
2023/09/18 04:05:51;;;;;;;9.97;3.67;;;;;;;22.44;73.85;99999.00;5072051;28;20200;-65
2023/09/18 04:08:18;;;;;;;5.33;2.97;;;;;;;22.58;74.93;99994.78;5077310;28;20187;-63
2023/09/18 04:10:45;;;;;;;7.10;3.70;;;;;;;22.75;72.23;100006.25;5080801;28;20332;-63
2023/09/18 04:13:12;;;;;;;4.83;3.40;;;;;;;22.78;71.50;100005.75;5079126;28;20281;-62
2023/09/18 04:15:40;;;;;;;8.10;3.50;;;;;;;22.72;71.94;100001.38;5081445;28;20258;-63
2023/09/18 04:18:07;;;;;;;5.87;3.43;;;;;;;22.73;71.37;100007.59;5085362;28;20614;-62
2023/09/18 04:20:35;;;;;;;5.10;3.37;;;;;;;22.65;71.61;100006.22;5090712;28;20265;-62
2023/09/18 04:23:23;;;;;;;4.53;3.93;;;;;;;22.68;71.97;100005.69;5080422;28;20600;-63
2023/09/18 04:25:50;;;;;;;12.60;5.50;;;;;;;22.68;71.14;100008.41;5070951;28;20192;-63
2023/09/18 04:28:18;;;;;;;9.53;5.00;;;;;;;22.62;71.40;100001.31;5070910;28;20197;-62
2023/09/18 04:30:46;;;;;;;8.93;4.73;;;;;;;22.57;71.71;100001.28;5071359;28;20275;-62
2023/09/18 04:33:14;;;;;;;10.43;6.00;;;;;;;22.57;71.61;99998.56;5078634;28;20241;-62
2023/09/18 04:35:41;;;;;;;10.07;6.73;;;;;;;22.54;71.89;100007.22;5081700;28;20266;-62
2023/09/18 04:38:08;;;;;;;8.43;7.33;;;;;;;22.55;71.83;100006.16;5071374;28;20194;-66
2023/09/18 04:40:34;;;;;;;7.20;6.50;;;;;;;22.29;72.50;100001.59;5070965;28;20238;-62
2023/09/18 04:43:03;;;;;;;6.90;6.23;;;;;;;22.32;72.88;100002.97;5076270;28;20608;-62
2023/09/18 04:45:30;;;;;;;8.30;6.10;;;;;;;22.27;72.76;99998.34;5090542;28;20191;-62
2023/09/18 04:47:58;;;;;;;9.40;5.90;;;;;;;22.29;72.94;100007.00;5090442;28;20245;-64
2023/09/18 04:50:26;;;;;;;15.57;5.77;;;;;;;22.27;72.75;99998.34;5090158;28;20237;-63
2023/09/18 04:52:54;;;;;;;12.27;5.53;;;;;;;22.14;73.26;99997.97;5090391;28;20300;-62
2023/09/18 04:55:21;;;;;;;10.53;5.70;;;;;;;22.14;73.06;99998.78;5090746;28;20875;-63
2023/09/18 04:57:48;;;;;;;9.20;5.73;;;;;;;22.14;73.39;100000.66;5090488;28;20194;-63
2023/09/18 05:00:16;;;;;;;10.43;5.13;;;;;;;22.19;73.81;100006.94;5092043;28;20223;-60
2023/09/18 05:02:43;;;;;;;13.27;5.47;;;;;;;22.24;73.12;100006.97;5076871;28;20206;-60
2023/09/18 05:05:11;;;;;;;9.27;6.53;;;;;;;22.25;72.91;100005.09;5074322;28;20299;-62
2023/09/18 05:07:38;;;;;;;13.93;6.23;;;;;;;22.31;72.93;100010.28;5079262;28;20245;-61
2023/09/18 05:10:05;;;;;;;8.37;5.93;;;;;;;22.42;72.83;100008.47;5094521;28;20200;-61
2023/09/18 05:12:32;;;;;;;10.83;5.80;;;;;;;22.41;72.66;100004.94;5086409;28;20664;-61
2023/09/18 05:14:59;;;;;;;10.67;4.80;;;;;;;22.56;73.61;100007.78;5074262;28;20204;-63
2023/09/18 05:17:43;;;;;;;11.30;5.70;;;;;;;22.71;72.01;100010.56;5074034;28;20195;-63
2023/09/18 05:20:16;;;;;;;13.10;6.23;;;;;;;22.83;71.96;100008.47;5073876;28;20639;-62
2023/09/18 05:22:43;;;;;;;6.57;5.33;;;;;;;23.01;71.48;100015.34;5073786;28;20574;-62
2023/09/18 05:25:10;;;;;;;10.57;5.40;;;;;;;23.04;71.08;99999.38;5074013;28;20199;-65
2023/09/18 05:27:43;;;;;;;30.70;6.40;;;;;;;23.21;69.78;100021.72;5073236;28;20663;-62
2023/09/18 05:30:12;;;;;;;13.50;5.40;;;;;;;23.22;70.62;100017.91;5089650;28;20187;-63
2023/09/18 05:32:39;;;;;;;9.13;4.83;;;;;;;23.36;69.70;100015.53;5089529;28;20586;-63
2023/09/18 05:35:09;;;;;;;10.47;4.87;;;;;;;23.50;69.79;100009.34;5087940;28;20658;-63
2023/09/18 05:37:38;;;;;;;10.43;4.90;;;;;;;23.73;70.87;100003.38;5089345;28;20196;-62
2023/09/18 05:40:07;;;;;;;10.50;4.10;;;;;;;23.88;68.68;100008.84;5084675;28;20400;-62
2023/09/18 05:42:33;;;;;;;8.30;4.20;;;;;;;24.17;67.08;100015.41;5085820;28;20285;-62
2023/09/18 05:45:00;;;;;;;6.20;4.10;;;;;;;24.56;65.56;100018.38;5093411;28;20645;-64
2023/09/18 05:47:27;;;;;;;6.30;3.80;;;;;;;25.11;62.51;100020.16;5092659;28;20543;-64
2023/09/18 05:49:53;;;;;;;24.47;4.70;;;;;;;25.33;62.94;100017.91;5090503;28;20583;-64
2023/09/18 05:52:22;;;;;;;12.03;4.03;;;;;;;25.81;61.21;100020.66;5078429;28;20191;-62
2023/09/18 05:54:50;;;;;;;6.63;3.93;;;;;;;26.18;60.56;100017.41;5093484;28;20651;-63
2023/09/18 05:57:17;;;;;;;11.43;3.80;;;;;;;26.46;60.91;100025.56;5092760;28;20229;-64
2023/09/18 05:59:45;;;;;;;8.70;4.17;;;;;;;26.92;56.96;100032.25;5092193;28;20269;-63
2023/09/18 06:02:11;;;;;;;3.63;3.00;;;;;;;27.40;55.07;100042.03;5093300;28;20195;-64
2023/09/18 06:04:38;;;;;;;5.30;3.00;;;;;;;27.76;52.89;100042.41;5095767;28;20249;-63
2023/09/18 06:07:05;;;;;;;3.90;2.80;;;;;;;28.08;50.73;100047.91;5106789;27;20248;-64
2023/09/18 06:09:31;;;;;;;4.13;3.00;;;;;;;28.33;49.83;100050.25;5090420;28;20195;-63
2023/09/18 06:12:01;;;;;;;2.97;2.77;;;;;;;28.49;48.25;100054.38;5090944;28;20194;-64
2023/09/18 06:14:27;;;;;;;2.13;2.00;;;;;;;28.46;47.29;100041.34;5092685;28;20819;-63
2023/09/18 06:16:54;;;;;;;2.90;2.70;;;;;;;28.31;48.59;100041.56;5092089;28;20209;-62
2023/09/18 06:19:21;;;;;;;5.77;3.33;;;;;;;28.20;47.94;100053.75;5090700;28;20206;-66
2023/09/18 06:21:48;;;;;;;9.70;5.43;;;;;;;27.98;49.09;100046.16;5092612;28;20191;-64
2023/09/18 06:24:15;;;;;;;6.43;3.93;;;;;;;27.73;49.21;100049.22;5092789;28;20241;-65
2023/09/18 06:26:41;;;;;;;4.30;2.37;;;;;;;27.37;50.32;100050.00;5092519;28;20201;-63
2023/09/18 06:29:10;;;;;;;2.43;2.23;;;;;;;27.37;49.93;100050.00;5089274;28;20248;-66
2023/09/18 06:31:36;;;;;;;2.77;2.57;;;;;;;27.39;50.56;100045.06;5072583;28;20231;-64
2023/09/18 06:34:03;;;;;;;3.40;3.10;;;;;;;27.40;50.96;100047.50;5072752;28;20200;-62
2023/09/18 06:36:30;;;;;;;3.47;3.20;;;;;;;27.36;50.67;100054.66;5072297;28;20246;-65
2023/09/18 06:38:56;;;;;;;3.10;2.80;;;;;;;27.33;50.52;100051.69;5075911;28;20191;-66
2023/09/18 06:41:23;;;;;;;4.97;2.90;;;;;;;27.12;50.77;100048.34;5089968;28;20219;-64
2023/09/18 06:43:50;;;;;;;6.43;2.80;;;;;;;26.92;51.45;100054.06;5092277;28;20202;-63
2023/09/18 06:46:18;;;;;;;3.90;2.90;;;;;;;26.91;52.36;100043.44;5090329;28;20659;-63
2023/09/18 06:48:49;;;;;;;4.30;2.90;;;;;;;26.92;52.13;100047.78;5090235;28;20248;-64
2023/09/18 06:51:15;;;;;;;8.53;2.80;;;;;;;26.86;52.03;100048.94;5080845;28;20196;-63
2023/09/18 06:53:42;;;;;;;6.57;3.00;;;;;;;26.86;52.70;100032.59;5073116;28;20197;-63
2023/09/18 06:56:10;;;;;;;3.30;2.60;;;;;;;26.80;52.28;100045.47;5086141;28;20254;-63
2023/09/18 06:58:37;;;;;;;4.37;2.70;;;;;;;27.11;51.99;100045.94;5074501;28;20194;-63
2023/09/18 07:01:06;;;;;;;4.70;3.20;;;;;;;27.22;51.03;100042.00;5087832;28;20226;-63
2023/09/18 07:03:36;;;;;;;2.87;2.53;;;;;;;27.45;52.06;100043.91;5091524;28;20205;-63
2023/09/18 07:06:04;;;;;;;9.40;3.20;;;;;;;27.66;50.63;100045.25;5090494;28;20192;-64
2023/09/18 07:08:32;;;;;;;5.50;3.10;;;;;;;27.76;49.78;100047.84;5088902;28;20203;-63
2023/09/18 07:10:59;;;;;;;11.50;3.43;;;;;;;27.61;50.77;100040.66;5091154;28;20249;-63
2023/09/18 07:13:25;;;;;;;3.57;3.00;;;;;;;27.55;50.09;100046.47;5091488;28;20192;-63
2023/09/18 07:15:52;;;;;;;4.97;3.20;;;;;;;27.54;49.84;100044.88;5084039;28;20554;-64
2023/09/18 07:18:19;;;;;;;5.80;3.10;;;;;;;27.64;49.33;100044.75;5071223;28;20621;-63
2023/09/18 07:20:47;;;;;;;3.80;3.20;;;;;;;27.86;50.24;100040.34;5071117;28;20284;-63
2023/09/18 07:23:14;;;;;;;5.40;4.22;;;;;;;27.99;50.02;100050.53;5068725;28;20442;-64
2023/09/18 07:25:43;;;;;;;2.70;2.50;;;;;;;28.14;46.72;100054.94;5076453;28;20187;-64
2023/09/18 07:28:15;;;;;;;5.70;2.70;;;;;;;28.27;47.26;100046.00;5090564;28;20205;-62
2023/09/18 07:30:43;;;;;;;4.90;2.70;;;;;;;28.54;46.51;100052.38;5077242;28;20200;-63
2023/09/18 07:33:10;;;;;;;2.80;2.30;;;;;;;28.63;45.23;100050.56;5071002;28;20196;-63
2023/09/18 07:35:37;;;;;;;2.63;2.20;;;;;;;28.81;43.86;100054.34;5071167;28;20254;-63
2023/09/18 07:38:05;;;;;;;3.87;2.60;;;;;;;28.83;46.35;100046.69;5072131;28;20813;-62
2023/09/18 07:40:32;;;;;;;2.60;2.40;;;;;;;28.84;43.74;100051.03;5077955;28;20223;-62
2023/09/18 07:42:59;;;;;;;2.50;2.30;;;;;;;28.31;45.13;100061.50;5089593;28;20189;-62
2023/09/18 07:45:25;;;;;;;4.47;2.40;;;;;;;28.52;44.71;100056.53;5091406;28;20191;-63
2023/09/18 07:47:52;;;;;;;2.50;2.30;;;;;;;28.62;44.61;100057.16;5073639;28;20238;-62
2023/09/18 07:50:19;;;;;;;2.97;2.77;;;;;;;28.81;43.51;100057.09;5073906;28;20261;-63
2023/09/18 07:52:46;;;;;;;3.17;2.10;;;;;;;28.96;42.95;100062.28;5079453;28;20188;-63
2023/09/18 07:55:14;;;;;;;2.85;2.63;;;;;;;28.89;42.99;100057.22;5083403;28;20436;-62
2023/09/18 07:57:41;;;;;;;3.80;2.50;;;;;;;28.82;42.43;100055.97;5087582;28;20195;-62
2023/09/18 08:00:12;;;;;;;2.70;2.50;;;;;;;28.73;42.33;100052.31;5084190;28;20212;-62
2023/09/18 08:02:39;;;;;;;7.70;2.80;;;;;;;28.89;43.82;100046.28;5070986;28;20652;-62
2023/09/18 08:05:07;;;;;;;9.17;2.70;;;;;;;29.31;44.07;100038.91;5077450;28;20195;-62
2023/09/18 08:07:35;;;;;;;2.53;2.33;;;;;;;29.47;41.69;100046.47;5079995;28;20219;-63
2023/09/18 08:10:01;;;;;;;2.77;2.57;;;;;;;29.49;41.67;100044.25;5070260;28;20218;-63
2023/09/18 08:12:29;;;;;;;7.93;2.77;;;;;;;29.69;40.89;100043.03;5071006;28;20248;-62
2023/09/18 08:14:58;;;;;;;3.27;2.97;;;;;;;30.08;40.40;100041.28;5079340;28;20191;-63
2023/09/18 08:17:25;;;;;;;3.47;2.93;;;;;;;30.28;39.24;100040.81;5088929;28;20205;-63
2023/09/18 08:19:53;;;;;;;3.23;3.03;;;;;;;30.11;39.21;100029.72;5074950;28;20312;-64
2023/09/18 08:22:20;;;;;;;7.53;2.60;;;;;;;30.41;37.80;100034.44;5071496;28;20238;-63
2023/09/18 08:24:48;;;;;;;3.87;2.40;;;;;;;30.43;38.28;100024.00;5077722;28;20195;-63
2023/09/18 08:27:16;;;;;;;3.13;2.80;;;;;;;30.51;37.33;100034.22;5089326;28;20199;-63
2023/09/18 08:29:44;;;;;;;5.23;2.90;;;;;;;30.66;38.48;100014.59;5077521;28;20202;-62
2023/09/18 08:32:11;;;;;;;5.53;3.27;;;;;;;30.69;37.89;100013.19;5078534;28;20188;-62
2023/09/18 08:34:38;;;;;;;3.50;2.77;;;;;;;30.30;38.97;100005.69;5078902;28;20200;-61
2023/09/18 08:37:05;;;;;;;2.70;2.50;;;;;;;30.28;39.62;100013.41;5089887;28;20246;-62
2023/09/18 08:39:32;;;;;;;3.13;2.77;;;;;;;30.59;38.16;100013.44;5094562;28;20198;-62
2023/09/18 08:42:03;;;;;;;2.63;2.50;;;;;;;30.64;37.78;100016.03;5094432;28;20223;-62
2023/09/18 08:44:31;;;;;;;5.00;2.70;;;;;;;30.86;37.65;100014.06;5094356;28;20270;-62
2023/09/18 08:46:59;;;;;;;2.50;2.40;;;;;;;30.99;37.29;100015.09;5079689;28;20257;-62
2023/09/18 08:49:27;;;;;;;2.47;2.37;;;;;;;31.13;36.58;100018.53;5074443;28;20199;-62
2023/09/18 08:51:56;;;;;;;3.00;2.80;;;;;;;31.31;36.33;100015.53;5094639;28;20195;-62
2023/09/18 08:54:24;;;;;;;2.97;2.33;;;;;;;31.29;35.97;100012.31;5094375;28;20282;-62
2023/09/18 08:56:51;;;;;;;3.27;2.60;;;;;;;31.41;35.92;100020.75;5093263;28;20188;-63
2023/09/18 08:59:17;;;;;;;5.43;2.60;;;;;;;31.25;35.77;100005.03;5094154;28;20677;-63
2023/09/18 09:01:44;;;;;;;3.87;2.30;;;;;;;31.26;36.39;100015.69;5094421;28;20245;-61
2023/09/18 09:04:12;;;;;;;4.57;2.20;;;;;;;31.32;35.53;100025.38;5092155;28;20195;-61
2023/09/18 09:06:39;;;;;;;2.53;2.33;;;;;;;31.57;35.47;100012.84;5079825;28;20191;-61
2023/09/18 09:09:07;;;;;;;3.07;2.20;;;;;;;31.76;34.52;100011.44;5076391;28;20284;-60
2023/09/18 09:11:34;;;;;;;4.50;2.40;;;;;;;31.82;35.44;100006.59;5073716;28;20206;-61
2023/09/18 09:14:21;;;;;;;4.73;2.30;;;;;;;31.65;34.96;100007.34;5082817;28;20264;-61
2023/09/18 09:16:49;;;;;;;2.50;2.30;;;;;;;31.66;34.67;100000.75;5084905;28;20186;-62
2023/09/18 09:19:18;;;;;;;2.90;2.70;;;;;;;31.72;34.71;100004.94;5087361;28;20283;-61
2023/09/18 09:21:46;;;;;;;3.07;2.50;;;;;;;31.47;34.84;99996.66;5085824;28;20706;-61
2023/09/18 09:24:14;;;;;;;3.20;2.50;;;;;;;31.28;34.49;100005.19;5091048;28;20267;-61
2023/09/18 09:26:42;;;;;;;4.90;2.30;;;;;;;31.03;35.15;99992.16;5092907;28;20206;-60
2023/09/18 09:29:21;;;;;;;3.40;2.80;;;;;;;31.04;35.61;99998.47;5081463;28;20227;-60
2023/09/18 09:31:48;;;;;;;7.93;2.63;;;;;;;31.10;35.47;99992.53;5073620;28;20553;-60
2023/09/18 09:34:26;;;;;;;2.73;2.53;;;;;;;31.12;35.17;100006.75;5073063;28;20193;-62
2023/09/18 09:36:54;;;;;;;3.03;2.70;;;;;;;30.83;35.67;99990.00;5076813;28;20275;-60
2023/09/18 09:39:24;;;;;;;4.23;2.33;;;;;;;30.75;35.85;99999.03;5080203;28;20227;-61
2023/09/18 09:41:52;;;;;;;3.47;2.60;;;;;;;30.74;36.22;99997.41;5083425;28;20254;-60
2023/09/18 09:44:20;;;;;;;3.07;2.53;;;;;;;30.62;36.34;99991.66;5085465;28;20183;-59
2023/09/18 09:46:48;;;;;;;4.30;2.97;;;;;;;30.19;38.12;99982.38;5083078;28;20196;-62
2023/09/18 09:49:16;;;;;;;5.97;2.80;;;;;;;29.98;38.45;99981.25;5082903;28;20687;-61
2023/09/18 09:51:44;;;;;;;8.03;3.13;;;;;;;29.90;39.10;99983.91;5078391;28;20222;-61
2023/09/18 09:54:12;;;;;;;5.50;3.60;;;;;;;29.87;39.74;99979.03;5088991;28;20248;-61
2023/09/18 09:56:43;;;;;;;3.87;2.77;;;;;;;29.86;39.46;99971.94;5090531;28;20222;-59
2023/09/18 09:59:11;;;;;;;2.73;2.63;;;;;;;29.87;39.09;99962.59;5091318;28;20670;-60
2023/09/18 10:01:40;;;;;;;2.97;2.77;;;;;;;30.07;38.83;99964.84;5084157;28;20311;-59
2023/09/18 10:04:10;;;;;;;3.00;2.80;;;;;;;30.00;38.97;99959.03;5091740;28;20686;-61
2023/09/18 10:06:38;;;;;;;3.10;2.73;;;;;;;29.94;37.65;99963.81;5079739;28;20192;-59
2023/09/18 10:09:10;;;;;;;3.40;2.90;;;;;;;29.92;37.72;99957.81;5072989;28;20188;-59
2023/09/18 10:11:44;;;;;;;6.17;3.40;;;;;;;29.87;38.44;99966.16;5082769;28;20191;-61
2023/09/18 10:14:13;;;;;;;3.13;2.73;;;;;;;29.83;38.46;99967.09;5088851;28;20557;-61
2023/09/18 10:16:44;;;;;;;3.57;2.70;;;;;;;29.99;37.75;99960.94;5080674;28;20251;-60
2023/09/18 10:19:23;;;;;;;5.03;3.00;;;;;;;30.15;38.17;99964.13;5082796;28;20689;-60
2023/09/18 10:22:00;;;;;;;5.40;2.60;;;;;;;30.54;36.52;99961.47;5072337;28;20208;-60
2023/09/18 10:24:32;;;;;;;3.53;2.10;;;;;;;30.45;34.57;99957.88;5072386;28;20196;-60
2023/09/18 10:27:02;;;;;;;2.53;2.33;;;;;;;30.61;35.36;99967.28;5073082;28;20608;-61
2023/09/18 10:29:30;;;;;;;3.30;2.37;;;;;;;30.68;34.63;99952.00;5072598;28;20192;-62
2023/09/18 10:31:57;;;;;;;2.83;2.30;;;;;;;30.31;35.06;99947.00;5086510;28;20291;-60
2023/09/18 10:34:25;;;;;;;2.73;2.40;;;;;;;30.26;35.80;99938.91;5078593;28;20264;-61
2023/09/18 10:36:53;;;;;;;2.77;2.57;;;;;;;30.33;35.85;99943.94;5077458;28;20281;-60
2023/09/18 10:39:23;;;;;;;3.83;2.50;;;;;;;30.55;35.62;99941.94;5082422;28;20666;-60
2023/09/18 10:41:53;;;;;;;3.10;2.80;;;;;;;30.62;34.81;99936.78;5075983;28;20449;-59
2023/09/18 10:44:20;;;;;;;2.90;2.70;;;;;;;30.55;35.05;99930.97;5080040;28;20188;-63
2023/09/18 10:46:48;;;;;;;3.03;2.77;;;;;;;30.55;34.92;99930.97;5088643;28;20203;-61
2023/09/18 10:49:15;;;;;;;4.07;2.63;;;;;;;30.52;34.42;99928.84;5088262;28;20191;-61
2023/09/18 10:51:43;;;;;;;2.93;2.43;;;;;;;30.27;34.97;99925.97;5090606;28;20203;-63
2023/09/18 10:54:09;;;;;;;2.83;2.37;;;;;;;29.97;35.77;99919.31;5087593;28;20219;-62
2023/09/18 10:56:36;;;;;;;2.80;2.57;;;;;;;29.89;35.43;99911.88;5079390;28;20238;-62
2023/09/18 10:59:08;;;;;;;4.47;2.50;;;;;;;29.68;34.71;99913.47;5082459;28;20191;-63
2023/09/18 11:01:36;;;;;;;3.10;2.70;;;;;;;29.39;35.18;99913.06;5082724;28;20606;-63
2023/09/18 11:04:06;;;;;;;3.30;2.17;;;;;;;29.26;35.12;99907.63;5074858;28;20637;-64
2023/09/18 11:07:05;;;;;;;4.00;2.40;;;;;;;29.25;36.08;99912.28;5081300;28;20195;-64
2023/09/18 11:09:33;;;;;;;2.90;2.57;;;;;;;29.18;35.97;99906.41;5083548;28;20179;-61
2023/09/18 11:12:04;;;;;;;3.13;2.77;;;;;;;29.47;37.05;99912.31;5077837;28;20580;-62
2023/09/18 11:14:44;;;;;;;5.37;2.50;;;;;;;29.60;35.43;99903.25;5083523;28;20191;-61
2023/09/18 11:17:35;;;;;;;4.13;2.90;;;;;;;29.55;37.05;99889.66;5091820;28;20241;-62
2023/09/18 11:20:08;;;;;;;3.40;3.07;;;;;;;29.64;37.11;99896.06;5091509;28;20720;-62
2023/09/18 11:22:36;;;;;;;3.00;2.70;;;;;;;29.88;37.44;99896.53;5075973;28;20690;-61
2023/09/18 11:25:46;;;;;;;2.80;2.17;;;;;;;29.94;34.38;99892.56;5076779;28;20283;-62
2023/09/18 11:28:16;;;;;;;2.63;2.53;;;;;;;30.06;34.24;99887.31;5057338;28;20594;-62
2023/09/18 11:30:51;;;;;;;3.67;2.40;;;;;;;30.21;34.78;99886.94;5071356;28;20199;-62
2023/09/18 11:33:31;;;;;;;2.80;2.50;;;;;;;29.90;34.58;99897.06;5070736;28;20187;-61